Time;durP1;ratioP1;P1;durP2;ratioP2;P2;SDS_P1;SDS_P2;PMS_P1;PMS_P2;Temp;Humidity;BMP_temperature;BMP_pressure;BME280_temperature;BME280_humidity;BME280_pressure;Samples;Min_cycle;Max_cycle;Signal;HPM_P1;HPM_P2
2022/03/18 00:01:21;;;;;;;;;9.50;9.50;;;;;6.63;78.09;103839.81;4988326;28;11580;-71
2022/03/18 00:03:48;;;;;;;;;9.50;8.50;;;;;6.65;77.57;103831.66;4987743;28;11435;-72
2022/03/18 00:06:17;;;;;;;;;12.00;9.25;;;;;6.57;77.48;103834.81;4988291;28;11464;-71
2022/03/18 00:08:46;;;;;;;;;11.50;10.00;;;;;6.53;77.44;103837.78;4987765;28;11461;-71
2022/03/18 00:11:14;;;;;;;;;11.75;10.75;;;;;6.52;78.08;103841.41;4971590;28;11530;-72
2022/03/18 00:13:40;;;;;;;;;12.50;12.25;;;;;6.50;77.59;103836.13;4980421;28;12223;-71
2022/03/18 00:16:07;;;;;;;;;11.00;10.50;;;;;6.51;77.53;103845.06;4988167;28;11586;-72
2022/03/18 00:18:33;;;;;;;;;11.75;11.50;;;;;6.47;77.21;103837.19;4973350;28;12288;-71
2022/03/18 00:21:00;;;;;;;;;15.75;12.50;;;;;6.46;77.91;103839.97;4968540;28;11471;-71
2022/03/18 00:23:27;;;;;;;;;9.75;7.25;;;;;6.44;77.97;103837.34;4976914;28;11484;-71
2022/03/18 00:25:54;;;;;;;;;16.25;14.50;;;;;6.39;77.79;103836.72;4976508;28;11472;-71
2022/03/18 00:28:20;;;;;;;;;14.25;11.75;;;;;6.35;77.85;103845.06;4975068;28;11583;-71
2022/03/18 00:30:48;;;;;;;;;12.25;10.25;;;;;6.30;78.18;103850.72;4984381;28;11565;-71
2022/03/18 00:33:15;;;;;;;;;15.50;10.75;;;;;6.32;78.34;103856.88;4967355;28;11481;-69
2022/03/18 00:35:41;;;;;;;;;11.00;11.00;;;;;6.35;78.36;103858.53;4968595;28;11622;-69
2022/03/18 00:38:08;;;;;;;;;12.50;12.50;;;;;6.33;78.00;103868.50;4967822;28;11598;-68
2022/03/18 00:40:34;;;;;;;;;10.25;10.00;;;;;6.33;78.48;103863.13;4982691;28;11476;-69
2022/03/18 00:43:03;;;;;;;;;10.25;10.00;;;;;6.35;78.64;103866.59;4982376;28;11455;-69
2022/03/18 00:45:30;;;;;;;;;11.75;9.75;;;;;6.30;78.24;103857.91;4976119;28;11534;-69
2022/03/18 00:53:26;;;;;;;;;19.00;17.50;;;;;6.21;78.28;103848.56;4986912;28;11582;-69
2022/03/18 00:55:53;;;;;;;;;14.00;14.00;;;;;6.20;78.23;103851.31;4991347;28;11498;-70
2022/03/18 00:58:19;;;;;;;;;15.25;14.75;;;;;6.15;78.54;103846.19;4978281;28;12286;-68
2022/03/18 01:00:45;;;;;;;;;12.25;11.75;;;;;6.08;78.55;103850.19;4971725;28;11614;-69
2022/03/18 01:03:15;;;;;;;;;12.00;11.75;;;;;6.06;78.86;103854.78;4971327;28;11563;-70
2022/03/18 01:05:42;;;;;;;;;12.00;11.00;;;;;6.03;79.13;103858.53;4980616;28;12165;-69
2022/03/18 01:08:09;;;;;;;;;17.75;15.25;;;;;6.08;79.35;103858.25;4991034;28;11446;-71
2022/03/18 01:10:36;;;;;;;;;11.00;9.25;;;;;6.10;78.90;103857.22;4989925;28;11604;-70
2022/03/18 01:13:03;;;;;;;;;16.25;16.25;;;;;6.08;79.12;103860.94;4990125;28;11477;-69
2022/03/18 01:15:29;;;;;;;;;12.50;12.25;;;;;6.07;79.09;103854.69;4990906;28;11487;-69
2022/03/18 01:17:56;;;;;;;;;12.00;11.25;;;;;6.04;78.83;103860.25;4979350;28;11479;-69
2022/03/18 01:20:23;;;;;;;;;15.75;13.75;;;;;6.04;78.91;103862.94;4982897;28;11606;-69
2022/03/18 01:22:49;;;;;;;;;16.75;15.25;;;;;6.02;79.01;103861.28;4988912;28;11501;-71
2022/03/18 01:25:16;;;;;;;;;13.00;12.00;;;;;6.03;78.92;103857.66;4990756;28;11592;-69
2022/03/18 01:27:42;;;;;;;;;14.00;12.50;;;;;6.01;79.07;103852.34;4990682;28;11570;-69
2022/03/18 01:30:09;;;;;;;;;10.75;10.00;;;;;5.97;78.82;103856.19;4976071;28;11634;-69
2022/03/18 01:32:36;;;;;;;;;14.00;14.00;;;;;5.90;79.18;103854.75;4977412;28;11484;-70
2022/03/18 01:35:03;;;;;;;;;17.00;14.00;;;;;5.88;79.34;103860.19;4978070;28;11622;-69
2022/03/18 01:37:29;;;;;;;;;11.75;11.75;;;;;5.89;79.58;103869.13;4977369;28;12256;-69
2022/03/18 01:39:56;;;;;;;;;10.00;7.25;;;;;5.85;79.19;103863.03;4989536;28;11498;-69
2022/03/18 01:42:22;;;;;;;;;10.50;10.50;;;;;5.87;79.26;103866.50;4985108;28;12179;-69
2022/03/18 01:44:49;;;;;;;;;15.25;15.25;;;;;5.87;79.40;103866.50;4977425;28;11582;-69
2022/03/18 01:47:16;;;;;;;;;14.75;13.50;;;;;5.87;79.36;103873.72;4986140;28;11491;-70
2022/03/18 01:49:42;;;;;;;;;12.00;12.00;;;;;5.83;79.34;103874.84;4992218;28;11511;-70
2022/03/18 01:52:10;;;;;;;;;13.00;11.50;;;;;5.81;79.56;103869.53;4980558;28;11665;-69
2022/03/18 01:54:49;;;;;;;;;14.25;12.00;;;;;5.76;79.82;103868.06;4979015;28;11536;-71
2022/03/18 01:57:22;;;;;;;;;16.75;13.00;;;;;5.72;79.82;103861.13;4968678;28;11490;-69
2022/03/18 01:59:50;;;;;;;;;11.50;11.50;;;;;5.75;79.97;103861.81;4981645;28;11470;-69
2022/03/18 02:02:17;;;;;;;;;13.50;12.00;;;;;5.76;79.48;103865.38;4989504;28;11587;-69
2022/03/18 02:04:45;;;;;;;;;14.25;12.50;;;;;5.75;79.61;103861.81;4989963;28;11465;-69
2022/03/18 02:07:12;;;;;;;;;11.25;11.25;;;;;5.74;79.73;103859.22;5004981;28;11646;-70
2022/03/18 02:09:40;;;;;;;;;12.25;12.25;;;;;5.76;79.60;103866.25;4990046;28;11468;-70
2022/03/18 02:12:09;;;;;;;;;14.50;10.00;;;;;5.77;79.39;103861.75;4972454;28;11501;-68
2022/03/18 02:14:40;;;;;;;;;14.00;14.00;;;;;5.78;79.77;103860.78;4978373;28;11485;-68
2022/03/18 02:17:09;;;;;;;;;15.00;12.50;;;;;5.71;79.36;103867.47;4971517;28;11593;-69
2022/03/18 02:19:36;;;;;;;;;9.25;9.00;;;;;5.74;79.72;103876.22;4970503;28;11594;-70
2022/03/18 02:22:13;;;;;;;;;17.00;13.00;;;;;5.73;79.43;103882.53;4969315;28;11601;-68
2022/03/18 02:24:42;;;;;;;;;15.25;11.75;;;;;5.69;79.63;103882.75;4970384;28;11486;-70
2022/03/18 02:27:09;;;;;;;;;15.00;12.50;;;;;5.66;79.76;103881.13;4969588;28;11693;-69
2022/03/18 02:29:36;;;;;;;;;13.75;13.75;;;;;5.62;79.19;103886.75;4981905;28;11615;-70
2022/03/18 02:32:04;;;;;;;;;14.75;14.50;;;;;5.57;79.39;103890.56;4986589;28;11567;-69
2022/03/18 02:34:31;;;;;;;;;9.00;9.00;;;;;5.52;79.72;103887.25;4970256;28;11574;-69
2022/03/18 02:36:58;;;;;;;;;12.00;12.00;;;;;5.49;80.05;103882.03;4970114;28;11482;-70
2022/03/18 02:39:25;;;;;;;;;15.75;14.25;;;;;5.53;79.98;103888.97;4983531;28;11594;-70
2022/03/18 02:41:52;;;;;;;;;10.00;9.50;;;;;5.52;79.85;103898.00;4995815;28;11617;-69
2022/03/18 02:44:19;;;;;;;;;14.00;10.25;;;;;5.43;79.75;103894.91;4989583;28;12135;-69
2022/03/18 02:46:45;;;;;;;;;14.75;13.75;;;;;5.37;80.19;103890.72;4989334;28;12246;-69
2022/03/18 02:49:12;;;;;;;;;13.75;13.00;;;;;5.33;80.49;103897.22;4989256;28;12232;-71
2022/03/18 02:51:38;;;;;;;;;13.25;13.25;;;;;5.30;80.51;103892.00;4981505;28;11622;-70
2022/03/18 02:54:05;;;;;;;;;12.00;12.00;;;;;5.31;80.43;103907.16;4980078;28;12168;-70
2022/03/18 02:56:32;;;;;;;;;13.00;9.50;;;;;5.27;80.46;103908.28;4984952;28;11627;-69
2022/03/18 02:59:00;;;;;;;;;14.50;14.50;;;;;5.27;80.79;103899.34;4969344;28;11569;-69
2022/03/18 03:01:28;;;;;;;;;18.50;14.75;;;;;5.23;80.96;103902.19;4977498;28;11563;-70
2022/03/18 03:03:54;;;;;;;;;11.25;10.75;;;;;5.20;80.97;103909.50;4987240;28;11597;-71
2022/03/18 03:09:06;;;;;;;;;17.00;14.25;;;;;5.21;81.46;103914.84;4972940;28;12196;-68
2022/03/18 03:11:34;;;;;;;;;10.00;10.00;;;;;5.17;81.01;103912.38;4970747;28;11507;-69
2022/03/18 03:14:01;;;;;;;;;19.00;15.00;;;;;5.19;81.42;103919.38;4984255;28;11500;-68
2022/03/18 03:16:28;;;;;;;;;12.00;12.00;;;;;5.15;81.37;103920.50;4970262;28;11496;-68
2022/03/18 03:18:54;;;;;;;;;17.75;15.00;;;;;5.19;81.17;103927.44;4969186;28;11531;-68
2022/03/18 03:21:21;;;;;;;;;17.00;14.50;;;;;5.20;81.24;103920.25;4970334;28;11640;-69
2022/03/18 03:23:47;;;;;;;;;15.00;15.00;;;;;5.20;81.13;103925.63;4968825;28;11528;-69
2022/03/18 03:26:14;;;;;;;;;14.75;13.75;;;;;5.19;81.46;103927.44;4966485;28;12260;-69
2022/03/18 03:28:41;;;;;;;;;14.75;14.25;;;;;5.17;81.36;103931.16;4986557;28;11475;-70
2022/03/18 03:31:08;;;;;;;;;18.00;15.50;;;;;5.13;81.67;103922.41;4989369;28;11545;-69
2022/03/18 03:33:34;;;;;;;;;10.00;10.00;;;;;5.12;81.76;103923.34;4983127;28;11540;-69
2022/03/18 03:36:01;;;;;;;;;18.25;15.50;;;;;5.08;81.75;103927.13;4969841;28;11596;-68
2022/03/18 03:38:27;;;;;;;;;10.25;10.25;;;;;5.11;81.93;103929.66;4980652;28;11622;-69
2022/03/18 03:40:55;;;;;;;;;14.00;14.00;;;;;5.08;81.66;103928.94;4988586;28;11470;-71
2022/03/18 03:43:21;;;;;;;;;15.00;12.50;;;;;5.07;81.95;103928.09;4974808;28;12340;-68
2022/03/18 03:45:48;;;;;;;;;15.00;13.00;;;;;5.06;81.94;103926.34;4964242;28;11578;-72
2022/03/18 03:48:15;;;;;;;;;15.00;13.25;;;;;5.03;81.64;103926.50;4983983;28;11610;-69
2022/03/18 03:50:41;;;;;;;;;16.25;14.50;;;;;4.97;81.90;103932.19;4970104;28;11670;-69
2022/03/18 03:53:09;;;;;;;;;17.75;15.75;;;;;4.98;81.81;103930.38;4980518;28;11518;-68
2022/03/18 03:55:39;;;;;;;;;13.75;11.00;;;;;4.93;81.53;103925.22;4988599;28;11606;-68
2022/03/18 03:58:07;;;;;;;;;10.00;10.00;;;;;4.93;81.46;103933.25;4976228;28;11497;-67
2022/03/18 04:00:36;;;;;;;;;10.00;10.00;;;;;4.99;81.44;103943.72;4977354;28;11627;-69
2022/03/18 04:03:04;;;;;;;;;13.50;13.50;;;;;4.89;81.46;103951.34;4980387;28;11531;-70
2022/03/18 04:05:32;;;;;;;;;16.00;14.50;;;;;4.90;81.59;103953.06;4981766;28;11596;-70
2022/03/18 04:07:59;;;;;;;;;13.50;12.50;;;;;4.88;81.51;103957.66;4988852;28;11518;-70
2022/03/18 04:10:26;;;;;;;;;15.00;14.75;;;;;4.84;81.56;103953.38;4988063;28;11654;-70
2022/03/18 04:12:54;;;;;;;;;12.00;10.75;;;;;4.83;81.53;103953.47;4988921;28;11461;-70
2022/03/18 04:15:21;;;;;;;;;15.00;10.75;;;;;4.82;81.38;103967.84;4989939;28;11489;-70
2022/03/18 04:17:49;;;;;;;;;13.50;13.00;;;;;4.77;81.61;103956.47;4980647;28;11569;-70
2022/03/18 04:20:24;;;;;;;;;12.00;12.00;;;;;4.75;82.01;103956.53;4974833;28;11499;-71
2022/03/18 04:22:51;;;;;;;;;11.00;10.50;;;;;4.75;81.78;103975.31;4978933;28;11449;-70
2022/03/18 04:25:20;;;;;;;;;14.00;12.50;;;;;4.73;81.63;103979.91;4989054;28;12276;-70
2022/03/18 04:27:48;;;;;;;;;13.25;12.00;;;;;4.70;81.54;103974.66;5004576;28;11598;-72
2022/03/18 04:30:14;;;;;;;;;8.00;7.00;;;;;4.74;81.62;103983.44;4970345;28;11574;-72
2022/03/18 04:32:41;;;;;;;;;12.25;10.50;;;;;4.73;81.57;103976.34;4977631;28;11571;-72
2022/03/18 04:35:09;;;;;;;;;14.50;13.00;;;;;4.74;81.49;103968.22;4969974;28;11532;-71
2022/03/18 04:37:39;;;;;;;;;14.75;12.50;;;;;4.70;81.19;103977.31;4969071;28;11499;-74
2022/03/18 04:40:10;;;;;;;;;12.00;12.00;;;;;4.75;81.64;103969.94;4972438;28;11559;-71
2022/03/18 04:42:37;;;;;;;;;16.00;13.00;;;;;4.71;81.52;103975.50;4983775;28;11513;-72
2022/03/18 04:45:05;;;;;;;;;12.00;10.00;;;;;4.70;81.75;103984.50;4976056;28;11672;-71
2022/03/18 04:47:33;;;;;;;;;10.50;9.50;;;;;4.72;81.94;103977.28;4990616;28;11566;-72
2022/03/18 04:50:00;;;;;;;;;13.50;8.50;;;;;4.72;81.95;103975.47;4990008;28;11560;-71
2022/03/18 04:52:27;;;;;;;;;12.50;12.50;;;;;4.71;82.38;103973.72;4989300;28;12132;-73
2022/03/18 04:54:54;;;;;;;;;14.50;14.00;;;;;4.75;82.85;103987.88;4989228;28;11558;-71
2022/03/18 04:57:20;;;;;;;;;14.00;14.00;;;;;4.73;82.82;103990.63;4971028;28;11516;-70
2022/03/18 04:59:49;;;;;;;;;17.25;13.50;;;;;4.71;82.64;103996.97;4979145;28;11557;-71
2022/03/18 05:02:16;;;;;;;;;15.00;12.75;;;;;4.64;82.75;104002.66;4988546;28;11480;-71
2022/03/18 05:04:44;;;;;;;;;16.00;15.00;;;;;4.59;82.81;104004.69;4973607;28;11524;-72
2022/03/18 05:07:11;;;;;;;;;13.50;10.00;;;;;4.61;83.17;104000.13;4968316;28;11494;-70
2022/03/18 05:09:41;;;;;;;;;24.50;16.00;;;;;4.62;83.30;103993.81;4969789;28;11503;-69
2022/03/18 05:12:09;;;;;;;;;16.25;16.25;;;;;4.60;83.44;103990.31;4978732;28;11488;-71
2022/03/18 05:14:38;;;;;;;;;16.50;15.00;;;;;4.57;82.93;104003.03;4986259;28;11497;-70
2022/03/18 05:17:06;;;;;;;;;15.25;13.00;;;;;4.59;83.29;104009.19;4987285;28;12376;-73
2022/03/18 05:19:32;;;;;;;;;12.00;10.00;;;;;4.55;83.13;104004.91;4987390;28;11538;-72
2022/03/18 05:21:58;;;;;;;;;13.50;11.50;;;;;4.55;83.21;104018.31;4984773;28;11615;-71
2022/03/18 05:24:28;;;;;;;;;11.25;10.00;;;;;4.54;82.89;104027.31;4964424;28;11531;-72
2022/03/18 05:26:56;;;;;;;;;13.00;12.75;;;;;4.51;82.84;104031.00;4969855;28;11673;-70
2022/03/18 05:29:23;;;;;;;;;12.00;10.50;;;;;4.49;82.99;104040.06;4967852;28;11480;-71
2022/03/18 05:31:49;;;;;;;;;16.50;14.00;;;;;4.50;82.85;104045.38;4969043;28;11483;-71
2022/03/18 05:34:16;;;;;;;;;12.00;10.25;;;;;4.41;82.95;104047.59;4990510;28;11656;-71
2022/03/18 05:36:44;;;;;;;;;12.25;12.25;;;;;4.41;83.26;104051.13;4988299;28;11516;-70
2022/03/18 05:39:10;;;;;;;;;15.25;14.25;;;;;4.40;83.65;104048.53;4979273;28;11600;-72
2022/03/18 05:41:37;;;;;;;;;16.25;15.00;;;;;4.40;83.60;104061.94;4988157;28;11478;-70
2022/03/18 05:44:05;;;;;;;;;18.25;18.25;;;;;4.42;83.09;104063.59;4982257;28;11605;-72
2022/03/18 05:46:38;;;;;;;;;18.25;14.75;;;;;4.35;83.19;104061.28;4980273;28;11655;-72
2022/03/18 05:49:05;;;;;;;;;19.50;17.25;;;;;4.39;83.38;104066.44;4988785;28;11463;-72
2022/03/18 05:51:31;;;;;;;;;19.50;15.00;;;;;4.38;83.51;104067.38;4969614;28;11556;-71
2022/03/18 05:53:58;;;;;;;;;18.25;17.25;;;;;4.37;83.26;104071.00;4980125;28;11542;-71
2022/03/18 05:59:10;;;;;;;;;19.75;17.00;;;;;4.43;83.38;104072.53;4973817;28;12330;-71
2022/03/18 06:01:38;;;;;;;;;14.25;14.25;;;;;4.41;83.29;104079.78;4993890;28;11555;-72
2022/03/18 06:04:06;;;;;;;;;13.00;13.00;;;;;4.40;83.31;104078.91;4986168;28;11561;-71
2022/03/18 06:06:33;;;;;;;;;15.00;14.00;;;;;4.41;83.64;104071.72;4976949;28;11474;-71
2022/03/18 06:11:48;;;;;;;;;14.50;14.50;;;;;4.54;83.88;104078.28;4985397;28;11511;-72
2022/03/18 06:14:19;;;;;;;;;19.00;16.00;;;;;4.83;83.90;104088.53;4986513;28;11556;-72
2022/03/18 06:16:47;;;;;;;;;17.00;17.00;;;;;5.52;81.58;104069.97;4990349;28;11528;-72
2022/03/18 06:19:18;;;;;;;;;23.00;17.25;;;;;6.19;78.54;104062.97;4988933;28;11578;-70
2022/03/18 06:21:45;;;;;;;;;16.00;15.50;;;;;6.60;75.81;104074.19;4989235;28;11635;-71
2022/03/18 06:24:13;;;;;;;;;12.75;12.00;;;;;6.97;74.37;104083.81;4970453;28;11586;-72
2022/03/18 06:26:40;;;;;;;;;14.00;13.25;;;;;6.92;73.51;104080.50;4966456;28;11506;-71
2022/03/18 06:29:07;;;;;;;;;12.25;12.25;;;;;7.04;73.45;104095.13;5002157;28;11528;-71
2022/03/18 06:31:35;;;;;;;;;11.75;11.75;;;;;7.49;72.40;104102.41;5005275;28;11634;-70
2022/03/18 06:34:02;;;;;;;;;12.00;12.00;;;;;8.06;70.29;104102.63;4972485;28;11480;-72
2022/03/18 06:36:30;;;;;;;;;10.25;8.00;;;;;7.94;69.39;104108.78;4985323;28;11502;-71
2022/03/18 06:38:56;;;;;;;;;14.75;12.75;;;;;7.86;70.00;104111.91;4970311;28;11571;-71
2022/03/18 06:41:23;;;;;;;;;13.25;11.00;;;;;8.42;68.32;104117.56;4978100;28;11425;-71
2022/03/18 06:43:50;;;;;;;;;18.50;15.75;;;;;8.62;66.68;104115.38;4974995;28;11138;-72
2022/03/18 06:46:17;;;;;;;;;14.75;14.75;;;;;8.45;67.61;104112.00;4978297;28;11305;-72
2022/03/18 06:48:44;;;;;;;;;11.25;10.75;;;;;8.69;67.26;104115.88;4977575;28;11032;-71
2022/03/18 06:51:11;;;;;;;;;10.00;10.00;;;;;8.98;66.62;104111.31;4976134;28;11649;-72
2022/03/18 06:53:38;;;;;;;;;10.75;10.00;;;;;9.59;64.38;104125.38;4988067;28;10936;-72
2022/03/18 06:56:04;;;;;;;;;12.25;11.75;;;;;9.22;64.13;104119.69;4987974;28;11753;-71
2022/03/18 06:58:33;;;;;;;;;15.75;12.00;;;;;8.70;66.44;104131.13;4982307;28;11098;-72
2022/03/18 07:01:00;;;;;;;;;8.50;8.50;;;;;8.67;67.37;104130.41;4971501;28;10921;-72
2022/03/18 07:03:27;;;;;;;;;10.00;10.00;;;;;9.04;66.75;104127.13;4978035;28;11040;-71
2022/03/18 07:05:54;;;;;;;;;10.25;10.25;;;;;9.07;66.87;104126.94;4968623;28;10835;-71
2022/03/18 07:08:20;;;;;;;;;14.50;14.50;;;;;9.10;66.44;104137.56;4984201;28;10948;-70
2022/03/18 07:10:47;;;;;;;;;19.25;16.00;;;;;9.03;66.96;104136.22;4976050;28;10982;-68
2022/03/18 07:13:15;;;;;;;;;13.75;13.50;;;;;9.13;66.57;104141.88;4992935;28;11094;-69
2022/03/18 07:15:42;;;;;;;;;12.00;12.00;;;;;9.10;66.94;104144.78;4987141;28;11122;-70
2022/03/18 07:18:08;;;;;;;;;14.25;14.00;;;;;9.14;67.29;104139.09;4976270;28;10866;-70
2022/03/18 07:20:36;;;;;;;;;15.50;14.00;;;;;9.34;65.90;104145.91;4968450;28;10868;-72
2022/03/18 07:23:15;;;;;;;;;10.00;10.00;;;;;9.49;65.01;104149.47;4967786;28;10929;-70
2022/03/18 07:25:43;;;;;;;;;7.50;7.50;;;;;9.77;64.13;104148.50;4976354;28;10721;-70
2022/03/18 07:28:12;;;;;;;;;13.00;13.00;;;;;9.84;63.36;104141.69;4972460;28;10727;-71
2022/03/18 07:30:40;;;;;;;;;12.50;11.50;;;;;9.96;63.10;104145.44;4971589;28;10867;-71
2022/03/18 07:33:07;;;;;;;;;17.00;11.50;;;;;10.17;61.87;104149.41;4986108;28;10971;-71
2022/03/18 07:35:35;;;;;;;;;10.75;10.00;;;;;10.15;61.09;104157.59;5003912;28;10703;-71
2022/03/18 07:38:03;;;;;;;;;14.50;12.50;;;;;10.19;61.51;104150.16;4988152;28;10702;-71
2022/03/18 07:40:31;;;;;;;;;15.00;15.00;;;;;10.43;61.32;104166.59;4989050;28;10711;-71
2022/03/18 07:42:58;;;;;;;;;14.00;14.00;;;;;10.54;60.57;104165.81;4988422;28;10891;-71
2022/03/18 07:45:30;;;;;;;;;15.75;15.75;;;;;10.46;60.79;104171.78;4971297;28;10686;-71
2022/03/18 07:48:00;;;;;;;;;17.00;17.00;;;;;10.37;61.88;104175.13;4980657;28;11482;-70
2022/03/18 07:50:29;;;;;;;;;22.00;19.00;;;;;10.33;61.97;104188.00;4983147;28;11108;-73
2022/03/18 07:53:00;;;;;;;;;18.75;18.75;;;;;10.19;62.16;104193.47;4967016;28;11061;-70
2022/03/18 07:55:29;;;;;;;;;21.25;19.50;;;;;10.20;63.01;104197.06;4982797;28;10903;-70
2022/03/18 07:57:57;;;;;;;;;16.50;16.25;;;;;10.43;63.19;104199.09;4981996;28;10757;-71
2022/03/18 08:00:24;;;;;;;;;13.75;13.75;;;;;10.60;62.65;104197.91;4979319;28;10963;-72
2022/03/18 08:02:52;;;;;;;;;16.25;15.00;;;;;10.67;63.08;104210.06;4991998;28;10820;-71
2022/03/18 08:05:20;;;;;;;;;17.00;15.50;;;;;11.04;62.45;104206.47;4993174;28;10791;-72
2022/03/18 08:07:53;;;;;;;;;15.25;14.75;;;;;11.33;61.12;104220.66;4979445;28;10670;-72
2022/03/18 08:10:20;;;;;;;;;23.25;15.50;;;;;11.63;61.06;104219.38;4968694;28;10554;-71
2022/03/18 08:12:48;;;;;;;;;20.25;13.75;;;;;11.66;60.43;104227.34;4969752;28;10647;-72
2022/03/18 08:15:17;;;;;;;;;18.00;18.00;;;;;11.39;60.42;104238.31;4973066;28;10879;-71
2022/03/18 08:17:44;;;;;;;;;17.00;16.00;;;;;11.63;60.53;104236.53;4969820;28;10679;-71
2022/03/18 08:20:13;;;;;;;;;20.50;15.75;;;;;11.73;60.23;104228.59;4955922;28;11361;-71
2022/03/18 08:22:40;;;;;;;;;21.75;17.00;;;;;11.93;60.79;104236.19;4955371;28;10714;-72
2022/03/18 08:25:08;;;;;;;;;18.75;16.50;;;;;12.13;60.18;104242.78;4982416;28;10635;-72
2022/03/18 08:27:35;;;;;;;;;14.75;14.75;;;;;12.18;60.15;104242.47;4977242;28;11464;-72
2022/03/18 08:30:05;;;;;;;;;13.50;13.50;;;;;12.54;59.40;104245.09;4973239;28;10476;-71
2022/03/18 08:32:32;;;;;;;;;14.00;13.25;;;;;12.65;60.02;104241.56;4971060;28;10386;-71
2022/03/18 08:34:59;;;;;;;;;11.25;11.25;;;;;12.74;59.29;104245.38;4980620;28;10350;-71
2022/03/18 08:38:26;;;;;;;;;13.00;13.00;;;;;13.03;59.86;104248.53;4970081;28;10356;-72
2022/03/18 08:40:23;;;;;;;;;14.25;12.25;;;;;13.15;58.54;104245.72;4971011;28;10366;-72
2022/03/18 08:42:49;;;;;;;;;15.00;13.00;;;;;13.08;59.78;104255.34;4984029;28;10185;-73
2022/03/18 08:45:16;;;;;;;;;10.75;10.75;;;;;13.04;60.50;104250.25;4976513;28;10141;-72
2022/03/18 08:47:43;;;;;;;;;10.00;8.00;;;;;13.57;59.44;104259.59;4983804;28;10137;-72
2022/03/18 08:50:11;;;;;;;;;12.50;12.50;;;;;13.34;58.77;104264.16;4964552;28;10027;-73
2022/03/18 08:52:37;;;;;;;;;13.00;10.25;;;;;13.61;59.78;104268.38;4975825;28;10139;-72
2022/03/18 08:55:05;;;;;;;;;11.50;11.50;;;;;13.71;59.02;104270.22;4963524;28;10086;-72
2022/03/18 08:57:34;;;;;;;;;9.00;8.25;;;;;13.76;60.42;104278.88;4973879;28;10176;-72
2022/03/18 09:00:01;;;;;;;;;9.00;7.25;;;;;14.19;58.83;104280.78;4967608;28;9861;-72
2022/03/18 09:02:27;;;;;;;;;9.50;8.75;;;;;14.23;59.05;104284.09;4968007;28;9704;-72
2022/03/18 09:04:54;;;;;;;;;11.75;7.00;;;;;14.31;58.67;104284.31;4973278;28;9837;-73
2022/03/18 09:07:20;;;;;;;;;10.00;9.50;;;;;14.66;57.60;104286.81;4977974;28;9860;-72
2022/03/18 09:09:48;;;;;;;;;9.00;8.75;;;;;14.27;56.81;104291.91;4971920;28;9783;-71
2022/03/18 09:12:18;;;;;;;;;7.00;7.00;;;;;14.64;57.84;104284.22;4971305;28;9978;-72
2022/03/18 09:14:45;;;;;;;;;11.50;10.00;;;;;15.00;56.83;104279.31;4970619;28;9687;-70
2022/03/18 09:17:12;;;;;;;;;10.50;9.25;;;;;15.14;56.46;104286.28;4974388;28;9739;-71
2022/03/18 09:19:39;;;;;;;;;13.50;11.00;;;;;14.76;56.77;104302.25;4975366;28;9756;-71
2022/03/18 09:22:08;;;;;;;;;13.50;13.50;;;;;14.68;57.03;104312.97;4979701;28;9692;-70
2022/03/18 09:24:37;;;;;;;;;14.00;10.25;;;;;14.66;57.35;104320.41;4970511;28;9660;-71
2022/03/18 09:27:04;;;;;;;;;10.75;10.75;;;;;14.66;57.35;104325.00;4975414;28;9698;-71
2022/03/18 09:29:31;;;;;;;;;11.00;9.00;;;;;14.39;57.27;104326.31;5005799;28;9735;-71
2022/03/18 09:31:57;;;;;;;;;8.75;8.00;;;;;14.55;58.11;104325.03;4988403;28;9764;-72
2022/03/18 09:34:26;;;;;;;;;9.50;9.50;;;;;14.98;57.20;104327.69;4971273;28;10439;-70
2022/03/18 09:36:55;;;;;;;;;10.75;9.75;;;;;14.75;56.29;104329.66;4968203;28;9701;-71
2022/03/18 09:39:24;;;;;;;;;11.75;9.25;;;;;14.91;56.75;104321.91;4978831;28;9864;-71
2022/03/18 09:41:51;;;;;;;;;12.75;11.75;;;;;14.41;56.62;104327.03;4971254;28;9514;-71
2022/03/18 09:44:18;;;;;;;;;13.25;12.00;;;;;14.42;59.41;104327.91;4977791;28;9700;-73
2022/03/18 09:46:50;;;;;;;;;13.00;9.25;;;;;14.61;56.96;104340.88;4978287;28;9602;-69
2022/03/18 09:49:18;;;;;;;;;9.00;7.00;;;;;14.86;56.41;104336.91;4995933;28;9379;-70
2022/03/18 09:51:47;;;;;;;;;9.00;7.00;;;;;15.02;57.09;104340.06;4969382;28;9602;-72
2022/03/18 09:54:26;;;;;;;;;11.50;11.50;;;;;14.66;56.29;104349.56;4984739;28;9601;-70
2022/03/18 09:56:54;;;;;;;;;10.75;10.75;;;;;14.34;57.93;104357.66;4971146;28;9723;-70
2022/03/18 09:59:23;;;;;;;;;13.25;10.25;;;;;13.99;58.65;104353.28;4971145;28;9868;-70
2022/03/18 10:01:50;;;;;;;;;13.00;11.75;;;;;14.95;57.42;104360.69;4970835;28;9673;-71
2022/03/18 10:04:16;;;;;;;;;10.00;10.00;;;;;14.74;57.17;104357.94;4971982;28;10399;-71
2022/03/18 10:06:43;;;;;;;;;9.75;9.25;;;;;15.12;55.69;104351.03;4970461;28;9702;-70
2022/03/18 10:09:14;;;;;;;;;7.00;7.00;;;;;15.30;55.77;104349.44;4952404;28;10399;-71
2022/03/18 10:11:43;;;;;;;;;9.00;8.00;;;;;15.22;55.31;104352.84;4952840;28;9827;-71
2022/03/18 10:14:24;;;;;;;;;16.25;13.00;;;;;14.75;56.62;104363.25;4952771;28;9682;-70
2022/03/18 10:16:51;;;;;;;;;10.75;9.75;;;;;14.87;55.40;104363.19;4969166;28;9863;-70
2022/03/18 10:19:24;;;;;;;;;13.25;8.50;;;;;15.00;56.17;104363.91;4988093;28;9844;-70
2022/03/18 10:21:58;;;;;;;;;12.00;12.00;;;;;14.24;57.28;104362.16;4990100;28;9740;-70
2022/03/18 10:24:36;;;;;;;;;14.25;11.75;;;;;14.49;57.40;104361.88;4990545;28;9714;-71
2022/03/18 10:27:16;;;;;;;;;11.00;10.00;;;;;14.30;57.93;104370.69;4989023;28;9911;-72
2022/03/18 10:29:46;;;;;;;;;9.00;9.00;;;;;14.28;57.41;104369.94;4971485;28;9746;-70
2022/03/18 10:32:14;;;;;;;;;16.50;16.25;;;;;14.06;57.61;104368.13;4970470;28;9605;-72
2022/03/18 10:37:46;;;;;;;;;13.00;11.75;;;;;13.99;58.14;104366.88;4976402;28;9874;-73
2022/03/18 10:40:14;;;;;;;;;15.00;12.00;;;;;13.95;58.46;104368.13;4989745;28;9835;-71
2022/03/18 10:42:41;;;;;;;;;8.75;8.75;;;;;14.43;57.77;104374.16;4981825;28;9807;-71
2022/03/18 10:45:08;;;;;;;;;13.75;12.50;;;;;13.87;58.09;104365.16;4970282;28;9935;-73
2022/03/18 10:47:40;;;;;;;;;14.25;13.75;;;;;13.51;59.92;104367.13;4976750;28;10898;-71
2022/03/18 10:50:10;;;;;;;;;13.50;13.25;;;;;13.49;59.87;104373.69;4988634;28;9920;-71
2022/03/18 10:52:46;;;;;;;;;16.25;14.00;;;;;13.50;60.53;104375.41;4982233;28;9875;-71
2022/03/18 10:55:20;;;;;;;;;12.75;11.00;;;;;14.04;59.19;104378.28;4968905;28;10037;-70
2022/03/18 10:57:53;;;;;;;;;17.75;16.00;;;;;14.41;57.24;104378.84;4977958;28;10616;-72
2022/03/18 11:00:25;;;;;;;;;13.50;12.25;;;;;13.61;59.54;104378.13;4989554;28;10049;-72
2022/03/18 11:02:58;;;;;;;;;16.00;14.00;;;;;14.21;58.53;104376.03;4980068;28;9937;-72
2022/03/18 11:05:33;;;;;;;;;16.50;15.25;;;;;14.49;58.05;104378.22;4969819;28;9830;-72
2022/03/18 11:08:01;;;;;;;;;15.75;13.00;;;;;14.83;57.32;104375.38;4979818;28;9969;-70
2022/03/18 11:13:15;;;;;;;;;13.75;13.00;;;;;14.61;56.58;104381.78;4978743;28;9784;-72
2022/03/18 11:15:44;;;;;;;;;10.75;9.25;;;;;14.59;57.91;104384.63;4973887;28;9912;-71
2022/03/18 11:18:12;;;;;;;;;16.75;13.50;;;;;14.14;57.51;104383.84;4983217;28;9754;-71
2022/03/18 11:20:43;;;;;;;;;12.00;12.00;;;;;14.27;58.20;104389.16;4989016;28;9742;-72
2022/03/18 11:23:17;;;;;;;;;15.75;13.00;;;;;14.12;58.49;104383.09;4981015;28;9591;-72
2022/03/18 11:25:47;;;;;;;;;14.50;13.25;;;;;14.62;56.74;104392.59;4972197;28;9969;-71
2022/03/18 11:28:16;;;;;;;;;11.50;11.50;;;;;14.90;56.68;104385.66;4982328;28;10463;-72
2022/03/18 11:30:44;;;;;;;;;11.75;11.00;;;;;14.80;56.96;104392.00;4989047;28;9586;-72
2022/03/18 11:33:10;;;;;;;;;15.50;13.25;;;;;14.81;56.98;104393.75;4977528;28;9615;-71
2022/03/18 11:35:49;;;;;;;;;10.00;10.00;;;;;14.69;56.74;104390.19;4970098;28;9700;-72
2022/03/18 11:38:15;;;;;;;;;15.00;13.25;;;;;14.80;56.80;104383.81;4973634;28;9646;-71
2022/03/18 11:40:51;;;;;;;;;19.75;16.75;;;;;14.75;56.33;104384.22;4974558;28;9689;-71